sensor_id;sensor_type;location;lat;lon;timestamp;temperature;humidity
25554;DHT22;13446;50.926;5.332;2024-03-07T00:02:20;8.50;99.90
25554;DHT22;13446;50.926;5.332;2024-03-07T00:04:46;8.60;99.90
25554;DHT22;13446;50.926;5.332;2024-03-07T00:07:11;8.60;99.90
25554;DHT22;13446;50.926;5.332;2024-03-07T00:09:37;8.60;99.90
25554;DHT22;13446;50.926;5.332;2024-03-07T00:12:05;8.60;99.90
25554;DHT22;13446;50.926;5.332;2024-03-07T00:14:33;8.60;99.90
25554;DHT22;13446;50.926;5.332;2024-03-07T00:17:01;8.50;99.90
25554;DHT22;13446;50.926;5.332;2024-03-07T00:19:26;8.50;99.90
25554;DHT22;13446;50.926;5.332;2024-03-07T00:21:56;8.50;99.90
25554;DHT22;13446;50.926;5.332;2024-03-07T00:24:22;8.50;99.90
25554;DHT22;13446;50.926;5.332;2024-03-07T00:26:49;8.50;99.90
25554;DHT22;13446;50.926;5.332;2024-03-07T00:29:16;8.40;99.90
25554;DHT22;13446;50.926;5.332;2024-03-07T00:31:44;8.40;99.90
25554;DHT22;13446;50.926;5.332;2024-03-07T00:34:10;8.30;99.90
25554;DHT22;13446;50.926;5.332;2024-03-07T00:36:36;8.40;99.90
25554;DHT22;13446;50.926;5.332;2024-03-07T00:39:04;8.30;99.90
25554;DHT22;13446;50.926;5.332;2024-03-07T00:41:29;8.40;99.90
25554;DHT22;13446;50.926;5.332;2024-03-07T00:43:56;8.30;99.90
25554;DHT22;13446;50.926;5.332;2024-03-07T00:46:22;8.20;99.90
25554;DHT22;13446;50.926;5.332;2024-03-07T00:48:47;8.20;99.90
25554;DHT22;13446;50.926;5.332;2024-03-07T00:51:13;8.20;99.90
25554;DHT22;13446;50.926;5.332;2024-03-07T00:53:39;8.20;99.90
25554;DHT22;13446;50.926;5.332;2024-03-07T00:56:04;8.20;99.90
25554;DHT22;13446;50.926;5.332;2024-03-07T00:58:30;8.10;99.90
25554;DHT22;13446;50.926;5.332;2024-03-07T01:00:56;8.20;99.90
25554;DHT22;13446;50.926;5.332;2024-03-07T01:03:23;8.10;99.90
25554;DHT22;13446;50.926;5.332;2024-03-07T01:05:49;8.00;99.90
25554;DHT22;13446;50.926;5.332;2024-03-07T01:08:15;8.10;99.90
25554;DHT22;13446;50.926;5.332;2024-03-07T01:10:41;8.20;99.90
25554;DHT22;13446;50.926;5.332;2024-03-07T01:13:07;8.10;99.90
25554;DHT22;13446;50.926;5.332;2024-03-07T01:15:34;8.20;99.90
25554;DHT22;13446;50.926;5.332;2024-03-07T01:18:00;8.20;99.90
25554;DHT22;13446;50.926;5.332;2024-03-07T01:20:26;8.10;99.90
25554;DHT22;13446;50.926;5.332;2024-03-07T01:22:52;8.10;99.90
25554;DHT22;13446;50.926;5.332;2024-03-07T01:25:18;8.00;99.90
25554;DHT22;13446;50.926;5.332;2024-03-07T01:27:44;8.00;99.90
25554;DHT22;13446;50.926;5.332;2024-03-07T01:30:10;8.00;99.90
25554;DHT22;13446;50.926;5.332;2024-03-07T01:32:36;8.00;99.90
25554;DHT22;13446;50.926;5.332;2024-03-07T01:35:02;8.00;99.90
25554;DHT22;13446;50.926;5.332;2024-03-07T01:37:27;7.90;99.90
25554;DHT22;13446;50.926;5.332;2024-03-07T01:39:54;7.90;99.90
25554;DHT22;13446;50.926;5.332;2024-03-07T01:42:19;7.90;99.90
25554;DHT22;13446;50.926;5.332;2024-03-07T01:44:45;7.90;99.90
25554;DHT22;13446;50.926;5.332;2024-03-07T01:47:11;7.80;99.90
25554;DHT22;13446;50.926;5.332;2024-03-07T01:49:38;7.70;99.90
25554;DHT22;13446;50.926;5.332;2024-03-07T01:52:04;7.60;99.90
25554;DHT22;13446;50.926;5.332;2024-03-07T01:54:31;7.70;99.90
25554;DHT22;13446;50.926;5.332;2024-03-07T01:56:57;7.70;99.90
25554;DHT22;13446;50.926;5.332;2024-03-07T01:59:23;7.70;99.90
25554;DHT22;13446;50.926;5.332;2024-03-07T02:01:50;7.70;99.90
25554;DHT22;13446;50.926;5.332;2024-03-07T02:04:16;7.70;99.90
25554;DHT22;13446;50.926;5.332;2024-03-07T02:06:42;7.60;99.90
25554;DHT22;13446;50.926;5.332;2024-03-07T02:09:08;7.60;99.90
25554;DHT22;13446;50.926;5.332;2024-03-07T02:11:34;7.70;99.90
25554;DHT22;13446;50.926;5.332;2024-03-07T02:14:00;7.80;99.90
25554;DHT22;13446;50.926;5.332;2024-03-07T02:16:26;7.80;99.90
25554;DHT22;13446;50.926;5.332;2024-03-07T02:18:52;7.60;99.90
25554;DHT22;13446;50.926;5.332;2024-03-07T02:21:20;7.50;99.90
25554;DHT22;13446;50.926;5.332;2024-03-07T02:23:45;7.30;99.90
25554;DHT22;13446;50.926;5.332;2024-03-07T02:26:11;7.20;99.90
25554;DHT22;13446;50.926;5.332;2024-03-07T02:28:37;7.20;99.90
25554;DHT22;13446;50.926;5.332;2024-03-07T02:31:03;7.40;99.90
25554;DHT22;13446;50.926;5.332;2024-03-07T02:33:28;7.50;99.90
25554;DHT22;13446;50.926;5.332;2024-03-07T02:35:57;7.40;99.90
25554;DHT22;13446;50.926;5.332;2024-03-07T02:38:23;7.40;99.90
25554;DHT22;13446;50.926;5.332;2024-03-07T02:40:49;7.30;99.90
25554;DHT22;13446;50.926;5.332;2024-03-07T02:43:15;7.30;99.90
25554;DHT22;13446;50.926;5.332;2024-03-07T02:45:41;7.20;99.90
25554;DHT22;13446;50.926;5.332;2024-03-07T02:48:07;7.20;99.90
25554;DHT22;13446;50.926;5.332;2024-03-07T02:50:35;7.20;99.90
25554;DHT22;13446;50.926;5.332;2024-03-07T02:53:03;7.30;99.90
25554;DHT22;13446;50.926;5.332;2024-03-07T02:55:29;7.40;99.90
25554;DHT22;13446;50.926;5.332;2024-03-07T02:57:55;7.50;99.90
25554;DHT22;13446;50.926;5.332;2024-03-07T03:00:24;7.60;99.90
25554;DHT22;13446;50.926;5.332;2024-03-07T03:02:55;7.50;99.90
25554;DHT22;13446;50.926;5.332;2024-03-07T03:05:22;7.50;99.90
25554;DHT22;13446;50.926;5.332;2024-03-07T03:07:48;7.40;99.90
25554;DHT22;13446;50.926;5.332;2024-03-07T03:10:24;7.30;99.90
25554;DHT22;13446;50.926;5.332;2024-03-07T03:12:55;7.20;99.90
25554;DHT22;13446;50.926;5.332;2024-03-07T03:15:23;7.20;99.90
25554;DHT22;13446;50.926;5.332;2024-03-07T03:17:50;7.30;99.90
25554;DHT22;13446;50.926;5.332;2024-03-07T03:20:15;7.20;99.90
25554;DHT22;13446;50.926;5.332;2024-03-07T03:22:54;7.20;99.90
25554;DHT22;13446;50.926;5.332;2024-03-07T03:25:21;7.10;99.90
25554;DHT22;13446;50.926;5.332;2024-03-07T03:27:49;7.10;99.90
25554;DHT22;13446;50.926;5.332;2024-03-07T03:30:16;7.10;99.90
25554;DHT22;13446;50.926;5.332;2024-03-07T03:32:47;7.10;99.90
25554;DHT22;13446;50.926;5.332;2024-03-07T03:35:14;7.10;99.90
25554;DHT22;13446;50.926;5.332;2024-03-07T03:37:42;7.10;99.90
25554;DHT22;13446;50.926;5.332;2024-03-07T03:40:08;7.00;99.90
25554;DHT22;13446;50.926;5.332;2024-03-07T03:42:36;7.00;99.90
25554;DHT22;13446;50.926;5.332;2024-03-07T03:45:03;7.10;99.90
25554;DHT22;13446;50.926;5.332;2024-03-07T03:47:34;7.00;99.90
25554;DHT22;13446;50.926;5.332;2024-03-07T03:49:59;7.00;99.90
25554;DHT22;13446;50.926;5.332;2024-03-07T03:52:25;7.00;99.90
25554;DHT22;13446;50.926;5.332;2024-03-07T03:54:51;7.10;99.90
25554;DHT22;13446;50.926;5.332;2024-03-07T03:57:17;7.00;99.90
25554;DHT22;13446;50.926;5.332;2024-03-07T03:59:44;6.90;99.90
25554;DHT22;13446;50.926;5.332;2024-03-07T04:02:10;6.90;99.90
25554;DHT22;13446;50.926;5.332;2024-03-07T04:04:39;7.00;99.90
25554;DHT22;13446;50.926;5.332;2024-03-07T04:07:05;6.90;99.90
25554;DHT22;13446;50.926;5.332;2024-03-07T04:09:31;6.90;99.90
25554;DHT22;13446;50.926;5.332;2024-03-07T04:11:57;6.80;99.90
25554;DHT22;13446;50.926;5.332;2024-03-07T04:14:24;6.70;99.90
25554;DHT22;13446;50.926;5.332;2024-03-07T04:16:50;6.70;99.90
25554;DHT22;13446;50.926;5.332;2024-03-07T04:19:16;6.60;99.90
25554;DHT22;13446;50.926;5.332;2024-03-07T04:21:43;6.60;99.90
25554;DHT22;13446;50.926;5.332;2024-03-07T04:24:09;6.60;99.90
25554;DHT22;13446;50.926;5.332;2024-03-07T04:26:35;6.60;99.90
25554;DHT22;13446;50.926;5.332;2024-03-07T04:29:00;6.70;99.90
25554;DHT22;13446;50.926;5.332;2024-03-07T04:31:26;6.60;99.90
25554;DHT22;13446;50.926;5.332;2024-03-07T04:33:52;6.50;99.90
25554;DHT22;13446;50.926;5.332;2024-03-07T04:36:17;6.60;99.90
25554;DHT22;13446;50.926;5.332;2024-03-07T04:38:43;6.50;99.90
25554;DHT22;13446;50.926;5.332;2024-03-07T04:41:13;6.60;99.90
25554;DHT22;13446;50.926;5.332;2024-03-07T04:43:41;6.60;99.90
25554;DHT22;13446;50.926;5.332;2024-03-07T04:46:08;6.50;99.90
25554;DHT22;13446;50.926;5.332;2024-03-07T04:48:34;6.40;99.90
25554;DHT22;13446;50.926;5.332;2024-03-07T04:50:59;6.30;99.90
25554;DHT22;13446;50.926;5.332;2024-03-07T04:53:25;6.20;99.90
25554;DHT22;13446;50.926;5.332;2024-03-07T04:55:51;6.20;99.90
25554;DHT22;13446;50.926;5.332;2024-03-07T04:58:17;6.20;99.90
25554;DHT22;13446;50.926;5.332;2024-03-07T05:00:42;6.30;99.90
25554;DHT22;13446;50.926;5.332;2024-03-07T05:03:08;6.40;99.90
25554;DHT22;13446;50.926;5.332;2024-03-07T05:05:35;6.40;99.90
25554;DHT22;13446;50.926;5.332;2024-03-07T05:08:00;6.40;99.90
25554;DHT22;13446;50.926;5.332;2024-03-07T05:10:26;6.20;99.90
25554;DHT22;13446;50.926;5.332;2024-03-07T05:12:56;6.20;99.90
25554;DHT22;13446;50.926;5.332;2024-03-07T05:15:24;6.30;99.90
25554;DHT22;13446;50.926;5.332;2024-03-07T05:17:52;6.40;99.90
25554;DHT22;13446;50.926;5.332;2024-03-07T05:20:17;6.40;99.90
25554;DHT22;13446;50.926;5.332;2024-03-07T05:22:43;6.50;99.90
25554;DHT22;13446;50.926;5.332;2024-03-07T05:25:29;6.70;99.90
25554;DHT22;13446;50.926;5.332;2024-03-07T05:27:55;6.50;99.90
25554;DHT22;13446;50.926;5.332;2024-03-07T05:30:20;6.40;99.90
25554;DHT22;13446;50.926;5.332;2024-03-07T05:32:48;6.30;99.90
25554;DHT22;13446;50.926;5.332;2024-03-07T05:35:14;6.40;99.90
25554;DHT22;13446;50.926;5.332;2024-03-07T05:37:41;6.30;99.90
25554;DHT22;13446;50.926;5.332;2024-03-07T05:40:12;6.40;99.90
25554;DHT22;13446;50.926;5.332;2024-03-07T05:42:38;6.30;99.90
25554;DHT22;13446;50.926;5.332;2024-03-07T05:45:05;6.10;99.90
25554;DHT22;13446;50.926;5.332;2024-03-07T05:47:34;6.10;99.90
25554;DHT22;13446;50.926;5.332;2024-03-07T05:50:00;6.10;99.90
25554;DHT22;13446;50.926;5.332;2024-03-07T05:52:25;6.20;99.90
25554;DHT22;13446;50.926;5.332;2024-03-07T05:54:51;6.30;99.90
25554;DHT22;13446;50.926;5.332;2024-03-07T05:57:17;6.30;99.90
25554;DHT22;13446;50.926;5.332;2024-03-07T05:59:44;6.40;99.90
25554;DHT22;13446;50.926;5.332;2024-03-07T06:02:10;6.30;99.90
25554;DHT22;13446;50.926;5.332;2024-03-07T06:04:37;6.40;99.90
25554;DHT22;13446;50.926;5.332;2024-03-07T06:07:03;6.50;99.90
25554;DHT22;13446;50.926;5.332;2024-03-07T06:09:29;6.50;99.90
25554;DHT22;13446;50.926;5.332;2024-03-07T06:11:55;6.40;99.90
25554;DHT22;13446;50.926;5.332;2024-03-07T06:14:20;6.50;99.90
25554;DHT22;13446;50.926;5.332;2024-03-07T06:16:48;6.50;99.90
25554;DHT22;13446;50.926;5.332;2024-03-07T06:19:13;6.40;99.90
25554;DHT22;13446;50.926;5.332;2024-03-07T06:21:40;6.60;99.90
25554;DHT22;13446;50.926;5.332;2024-03-07T06:24:06;6.40;99.90
25554;DHT22;13446;50.926;5.332;2024-03-07T06:26:34;6.30;99.90
25554;DHT22;13446;50.926;5.332;2024-03-07T06:29:11;6.30;99.90
25554;DHT22;13446;50.926;5.332;2024-03-07T06:31:37;6.30;99.90
25554;DHT22;13446;50.926;5.332;2024-03-07T06:34:03;6.30;99.90
25554;DHT22;13446;50.926;5.332;2024-03-07T06:36:29;6.30;99.90
25554;DHT22;13446;50.926;5.332;2024-03-07T06:38:55;6.30;99.90
25554;DHT22;13446;50.926;5.332;2024-03-07T06:41:21;6.40;99.90
25554;DHT22;13446;50.926;5.332;2024-03-07T06:43:47;6.40;99.90
25554;DHT22;13446;50.926;5.332;2024-03-07T06:46:16;6.40;99.90
25554;DHT22;13446;50.926;5.332;2024-03-07T06:48:42;6.20;99.90
25554;DHT22;13446;50.926;5.332;2024-03-07T06:51:09;6.30;99.90
25554;DHT22;13446;50.926;5.332;2024-03-07T06:53:36;6.40;99.90
25554;DHT22;13446;50.926;5.332;2024-03-07T06:56:01;6.50;99.90
25554;DHT22;13446;50.926;5.332;2024-03-07T06:58:27;6.50;99.90
25554;DHT22;13446;50.926;5.332;2024-03-07T07:00:53;6.60;99.90
25554;DHT22;13446;50.926;5.332;2024-03-07T07:03:23;6.70;99.90
25554;DHT22;13446;50.926;5.332;2024-03-07T07:05:50;6.90;99.90
25554;DHT22;13446;50.926;5.332;2024-03-07T07:08:16;7.00;99.90
25554;DHT22;13446;50.926;5.332;2024-03-07T07:10:42;7.00;99.90
25554;DHT22;13446;50.926;5.332;2024-03-07T07:13:09;6.90;99.90
25554;DHT22;13446;50.926;5.332;2024-03-07T07:15:36;7.10;99.90
25554;DHT22;13446;50.926;5.332;2024-03-07T07:18:03;7.40;99.90
25554;DHT22;13446;50.926;5.332;2024-03-07T07:20:29;7.80;99.90
25554;DHT22;13446;50.926;5.332;2024-03-07T07:22:55;8.40;99.90
25554;DHT22;13446;50.926;5.332;2024-03-07T07:25:23;8.90;99.90
25554;DHT22;13446;50.926;5.332;2024-03-07T07:27:51;9.40;99.90
25554;DHT22;13446;50.926;5.332;2024-03-07T07:30:22;9.90;99.90
25554;DHT22;13446;50.926;5.332;2024-03-07T07:32:48;10.30;99.90
25554;DHT22;13446;50.926;5.332;2024-03-07T07:35:14;10.40;99.90
25554;DHT22;13446;50.926;5.332;2024-03-07T07:37:45;11.10;99.90
25554;DHT22;13446;50.926;5.332;2024-03-07T07:40:16;11.70;99.90
25554;DHT22;13446;50.926;5.332;2024-03-07T07:42:47;12.30;99.90
25554;DHT22;13446;50.926;5.332;2024-03-07T07:45:15;12.90;99.90
25554;DHT22;13446;50.926;5.332;2024-03-07T07:47:47;13.40;99.90
25554;DHT22;13446;50.926;5.332;2024-03-07T07:50:16;13.80;99.90
25554;DHT22;13446;50.926;5.332;2024-03-07T07:52:47;13.50;99.90
25554;DHT22;13446;50.926;5.332;2024-03-07T07:55:17;13.70;99.90
25554;DHT22;13446;50.926;5.332;2024-03-07T07:57:56;13.60;99.90
25554;DHT22;13446;50.926;5.332;2024-03-07T08:00:26;14.10;99.90
25554;DHT22;13446;50.926;5.332;2024-03-07T08:02:55;14.60;99.90
25554;DHT22;13446;50.926;5.332;2024-03-07T08:05:23;15.40;99.90
25554;DHT22;13446;50.926;5.332;2024-03-07T08:07:53;15.70;99.90
25554;DHT22;13446;50.926;5.332;2024-03-07T08:10:20;16.10;99.90
25554;DHT22;13446;50.926;5.332;2024-03-07T08:12:47;16.00;99.90
25554;DHT22;13446;50.926;5.332;2024-03-07T08:15:14;16.40;99.90
25554;DHT22;13446;50.926;5.332;2024-03-07T08:17:44;17.10;99.90
25554;DHT22;13446;50.926;5.332;2024-03-07T08:20:13;17.80;98.70
25554;DHT22;13446;50.926;5.332;2024-03-07T08:22:43;17.50;97.30
25554;DHT22;13446;50.926;5.332;2024-03-07T08:25:15;17.20;97.10
25554;DHT22;13446;50.926;5.332;2024-03-07T08:27:45;17.50;96.40
25554;DHT22;13446;50.926;5.332;2024-03-07T08:30:11;17.40;95.50
25554;DHT22;13446;50.926;5.332;2024-03-07T08:32:46;17.50;95.60
25554;DHT22;13446;50.926;5.332;2024-03-07T08:35:12;18.10;93.90
25554;DHT22;13446;50.926;5.332;2024-03-07T08:37:47;18.80;93.30
25554;DHT22;13446;50.926;5.332;2024-03-07T08:40:20;18.70;91.10
25554;DHT22;13446;50.926;5.332;2024-03-07T08:42:51;18.60;91.10
25554;DHT22;13446;50.926;5.332;2024-03-07T08:45:20;19.10;89.20
25554;DHT22;13446;50.926;5.332;2024-03-07T08:47:47;19.50;88.00
25554;DHT22;13446;50.926;5.332;2024-03-07T08:50:14;19.80;85.70
25554;DHT22;13446;50.926;5.332;2024-03-07T08:52:41;20.50;81.50
25554;DHT22;13446;50.926;5.332;2024-03-07T08:55:08;21.00;75.10
25554;DHT22;13446;50.926;5.332;2024-03-07T08:57:38;20.60;75.80
25554;DHT22;13446;50.926;5.332;2024-03-07T09:00:05;20.00;75.40
25554;DHT22;13446;50.926;5.332;2024-03-07T09:02:35;20.60;76.10
25554;DHT22;13446;50.926;5.332;2024-03-07T09:05:02;21.60;71.40
25554;DHT22;13446;50.926;5.332;2024-03-07T09:07:28;21.10;71.70
25554;DHT22;13446;50.926;5.332;2024-03-07T09:09:55;21.30;68.80
25554;DHT22;13446;50.926;5.332;2024-03-07T09:12:21;21.80;66.70
25554;DHT22;13446;50.926;5.332;2024-03-07T09:14:46;22.00;65.60
25554;DHT22;13446;50.926;5.332;2024-03-07T09:17:12;21.70;63.30
25554;DHT22;13446;50.926;5.332;2024-03-07T09:19:38;21.70;64.10
25554;DHT22;13446;50.926;5.332;2024-03-07T09:22:04;21.90;62.30
25554;DHT22;13446;50.926;5.332;2024-03-07T09:24:31;22.10;63.20
25554;DHT22;13446;50.926;5.332;2024-03-07T09:26:57;22.70;60.80
25554;DHT22;13446;50.926;5.332;2024-03-07T09:29:23;23.20;59.40
25554;DHT22;13446;50.926;5.332;2024-03-07T09:31:52;23.60;57.10
25554;DHT22;13446;50.926;5.332;2024-03-07T09:34:19;24.20;55.60
25554;DHT22;13446;50.926;5.332;2024-03-07T09:36:48;24.50;54.00
25554;DHT22;13446;50.926;5.332;2024-03-07T09:39:17;24.20;52.90
25554;DHT22;13446;50.926;5.332;2024-03-07T09:41:44;24.00;53.40
25554;DHT22;13446;50.926;5.332;2024-03-07T09:44:16;23.70;53.40
25554;DHT22;13446;50.926;5.332;2024-03-07T09:46:48;23.50;52.80
25554;DHT22;13446;50.926;5.332;2024-03-07T09:49:14;23.20;54.50
25554;DHT22;13446;50.926;5.332;2024-03-07T09:51:40;23.90;53.10
25554;DHT22;13446;50.926;5.332;2024-03-07T09:54:08;23.50;53.50
25554;DHT22;13446;50.926;5.332;2024-03-07T09:56:35;23.50;53.70
25554;DHT22;13446;50.926;5.332;2024-03-07T09:59:04;22.90;53.80
25554;DHT22;13446;50.926;5.332;2024-03-07T10:01:32;23.10;53.70
25554;DHT22;13446;50.926;5.332;2024-03-07T10:04:00;23.20;53.10
25554;DHT22;13446;50.926;5.332;2024-03-07T10:06:43;24.40;52.30
25554;DHT22;13446;50.926;5.332;2024-03-07T10:09:13;23.30;51.30
25554;DHT22;13446;50.926;5.332;2024-03-07T10:11:40;23.40;51.70
25554;DHT22;13446;50.926;5.332;2024-03-07T10:14:09;23.60;50.80
25554;DHT22;13446;50.926;5.332;2024-03-07T10:16:37;23.00;50.80
25554;DHT22;13446;50.926;5.332;2024-03-07T10:19:07;23.20;51.60
25554;DHT22;13446;50.926;5.332;2024-03-07T10:21:35;23.10;50.60
25554;DHT22;13446;50.926;5.332;2024-03-07T10:24:09;22.10;52.90
25554;DHT22;13446;50.926;5.332;2024-03-07T10:26:39;22.50;52.20
25554;DHT22;13446;50.926;5.332;2024-03-07T10:29:08;22.80;51.80
25554;DHT22;13446;50.926;5.332;2024-03-07T10:31:35;22.30;52.20
25554;DHT22;13446;50.926;5.332;2024-03-07T10:34:03;22.70;51.90
25554;DHT22;13446;50.926;5.332;2024-03-07T10:36:32;22.70;51.30
25554;DHT22;13446;50.926;5.332;2024-03-07T10:39:02;22.00;51.50
25554;DHT22;13446;50.926;5.332;2024-03-07T10:41:41;20.40;55.00
25554;DHT22;13446;50.926;5.332;2024-03-07T10:44:09;19.10;58.00
25554;DHT22;13446;50.926;5.332;2024-03-07T10:46:39;18.50;60.80
25554;DHT22;13446;50.926;5.332;2024-03-07T10:49:07;17.30;64.30
25554;DHT22;13446;50.926;5.332;2024-03-07T10:51:46;16.90;67.30
25554;DHT22;13446;50.926;5.332;2024-03-07T10:54:20;16.90;67.70
25554;DHT22;13446;50.926;5.332;2024-03-07T10:57:01;16.70;70.20
25554;DHT22;13446;50.926;5.332;2024-03-07T10:59:34;16.60;70.70
25554;DHT22;13446;50.926;5.332;2024-03-07T11:04:32;16.10;74.20
25554;DHT22;13446;50.926;5.332;2024-03-07T11:07:00;16.10;78.40
25554;DHT22;13446;50.926;5.332;2024-03-07T11:09:26;16.60;78.00
25554;DHT22;13446;50.926;5.332;2024-03-07T11:12:00;18.00;74.10
25554;DHT22;13446;50.926;5.332;2024-03-07T11:14:26;18.30;68.30
25554;DHT22;13446;50.926;5.332;2024-03-07T11:16:53;17.80;68.70
25554;DHT22;13446;50.926;5.332;2024-03-07T11:19:27;17.40;69.00
25554;DHT22;13446;50.926;5.332;2024-03-07T11:21:57;16.60;70.30
25554;DHT22;13446;50.926;5.332;2024-03-07T11:24:28;15.90;74.50
25554;DHT22;13446;50.926;5.332;2024-03-07T11:26:57;15.60;77.40
25554;DHT22;13446;50.926;5.332;2024-03-07T11:29:49;15.60;77.40
25554;DHT22;13446;50.926;5.332;2024-03-07T11:32:23;15.00;79.50
25554;DHT22;13446;50.926;5.332;2024-03-07T11:34:49;14.40;82.00
25554;DHT22;13446;50.926;5.332;2024-03-07T11:39:48;14.90;80.10
25554;DHT22;13446;50.926;5.332;2024-03-07T11:42:25;15.00;80.20
25554;DHT22;13446;50.926;5.332;2024-03-07T11:44:52;14.60;80.60
25554;DHT22;13446;50.926;5.332;2024-03-07T11:47:22;14.50;81.50
25554;DHT22;13446;50.926;5.332;2024-03-07T11:49:50;14.70;80.70
25554;DHT22;13446;50.926;5.332;2024-03-07T11:52:18;15.00;79.50
25554;DHT22;13446;50.926;5.332;2024-03-07T11:54:44;15.00;78.90
25554;DHT22;13446;50.926;5.332;2024-03-07T11:57:19;15.30;77.70
25554;DHT22;13446;50.926;5.332;2024-03-07T11:59:47;15.10;76.20
25554;DHT22;13446;50.926;5.332;2024-03-07T12:02:17;14.70;78.70
25554;DHT22;13446;50.926;5.332;2024-03-07T12:04:47;16.00;75.80
25554;DHT22;13446;50.926;5.332;2024-03-07T12:07:14;17.80;65.90
25554;DHT22;13446;50.926;5.332;2024-03-07T12:09:43;18.20;59.70
25554;DHT22;13446;50.926;5.332;2024-03-07T12:12:16;18.60;58.20
25554;DHT22;13446;50.926;5.332;2024-03-07T12:14:42;20.20;55.20
25554;DHT22;13446;50.926;5.332;2024-03-07T12:17:08;20.40;52.10
25554;DHT22;13446;50.926;5.332;2024-03-07T12:19:35;19.80;53.50
25554;DHT22;13446;50.926;5.332;2024-03-07T12:22:02;20.10;52.80
25554;DHT22;13446;50.926;5.332;2024-03-07T12:24:29;20.00;52.30
25554;DHT22;13446;50.926;5.332;2024-03-07T12:29:38;20.40;51.70
25554;DHT22;13446;50.926;5.332;2024-03-07T12:32:08;20.70;50.80
25554;DHT22;13446;50.926;5.332;2024-03-07T12:34:34;21.10;50.40
25554;DHT22;13446;50.926;5.332;2024-03-07T12:37:04;21.10;49.00
25554;DHT22;13446;50.926;5.332;2024-03-07T12:39:32;20.10;49.20
25554;DHT22;13446;50.926;5.332;2024-03-07T12:42:03;18.80;51.70
25554;DHT22;13446;50.926;5.332;2024-03-07T12:44:42;19.10;52.50
25554;DHT22;13446;50.926;5.332;2024-03-07T12:47:12;19.20;50.90
25554;DHT22;13446;50.926;5.332;2024-03-07T12:49:42;19.00;51.80
25554;DHT22;13446;50.926;5.332;2024-03-07T12:52:08;19.20;51.30
25554;DHT22;13446;50.926;5.332;2024-03-07T12:54:37;18.80;52.10
25554;DHT22;13446;50.926;5.332;2024-03-07T12:57:10;18.70;51.90
25554;DHT22;13446;50.926;5.332;2024-03-07T12:59:39;18.80;51.90
25554;DHT22;13446;50.926;5.332;2024-03-07T13:02:11;18.60;52.10
25554;DHT22;13446;50.926;5.332;2024-03-07T13:04:38;18.90;52.10
25554;DHT22;13446;50.926;5.332;2024-03-07T13:07:07;19.70;50.70
25554;DHT22;13446;50.926;5.332;2024-03-07T13:09:36;19.50;50.30
25554;DHT22;13446;50.926;5.332;2024-03-07T13:12:09;19.80;49.80
25554;DHT22;13446;50.926;5.332;2024-03-07T13:14:35;19.50;50.30
25554;DHT22;13446;50.926;5.332;2024-03-07T13:17:04;19.70;50.80
25554;DHT22;13446;50.926;5.332;2024-03-07T13:19:31;18.90;51.50
25554;DHT22;13446;50.926;5.332;2024-03-07T13:21:57;18.70;51.20
25554;DHT22;13446;50.926;5.332;2024-03-07T13:24:25;18.90;51.60
25554;DHT22;13446;50.926;5.332;2024-03-07T13:26:50;18.40;52.10
25554;DHT22;13446;50.926;5.332;2024-03-07T13:29:17;18.30;52.90
25554;DHT22;13446;50.926;5.332;2024-03-07T13:31:47;18.50;52.50
25554;DHT22;13446;50.926;5.332;2024-03-07T13:34:13;18.80;52.10
25554;DHT22;13446;50.926;5.332;2024-03-07T13:36:40;19.70;51.00
25554;DHT22;13446;50.926;5.332;2024-03-07T13:39:11;20.10;50.60
25554;DHT22;13446;50.926;5.332;2024-03-07T13:41:41;20.50;49.20
25554;DHT22;13446;50.926;5.332;2024-03-07T13:44:07;20.00;49.20
25554;DHT22;13446;50.926;5.332;2024-03-07T13:46:34;18.80;50.00
25554;DHT22;13446;50.926;5.332;2024-03-07T13:49:00;18.40;51.70
25554;DHT22;13446;50.926;5.332;2024-03-07T13:51:36;18.60;51.30
25554;DHT22;13446;50.926;5.332;2024-03-07T13:54:03;18.50;51.20
25554;DHT22;13446;50.926;5.332;2024-03-07T13:57:28;17.90;52.30
25554;DHT22;13446;50.926;5.332;2024-03-07T14:05:48;17.70;53.30
25554;DHT22;13446;50.926;5.332;2024-03-07T14:08:40;17.80;53.70
25554;DHT22;13446;50.926;5.332;2024-03-07T14:13:56;16.90;54.70
25554;DHT22;13446;50.926;5.332;2024-03-07T14:31:04;14.80;61.20
25554;DHT22;13446;50.926;5.332;2024-03-07T14:36:45;13.90;66.20
25554;DHT22;13446;50.926;5.332;2024-03-07T14:39:12;13.60;67.90
25554;DHT22;13446;50.926;5.332;2024-03-07T14:41:56;13.70;70.00
25554;DHT22;13446;50.926;5.332;2024-03-07T14:44:24;13.80;71.00
25554;DHT22;13446;50.926;5.332;2024-03-07T14:46:57;13.90;70.60
25554;DHT22;13446;50.926;5.332;2024-03-07T14:49:23;13.70;71.00
25554;DHT22;13446;50.926;5.332;2024-03-07T14:51:49;13.50;71.20
25554;DHT22;13446;50.926;5.332;2024-03-07T14:54:20;13.40;71.10
25554;DHT22;13446;50.926;5.332;2024-03-07T14:56:46;13.10;72.90
25554;DHT22;13446;50.926;5.332;2024-03-07T14:59:12;12.90;74.30
25554;DHT22;13446;50.926;5.332;2024-03-07T15:01:38;12.80;76.20
25554;DHT22;13446;50.926;5.332;2024-03-07T15:04:05;12.90;77.90
25554;DHT22;13446;50.926;5.332;2024-03-07T15:06:33;12.90;77.90
25554;DHT22;13446;50.926;5.332;2024-03-07T15:09:00;12.80;78.70
25554;DHT22;13446;50.926;5.332;2024-03-07T15:11:31;12.70;79.70
25554;DHT22;13446;50.926;5.332;2024-03-07T15:13:59;12.70;80.70
25554;DHT22;13446;50.926;5.332;2024-03-07T15:16:29;12.70;80.70
25554;DHT22;13446;50.926;5.332;2024-03-07T15:19:00;12.80;80.90
25554;DHT22;13446;50.926;5.332;2024-03-07T15:21:26;12.70;80.50
25554;DHT22;13446;50.926;5.332;2024-03-07T15:23:58;12.50;81.50
25554;DHT22;13446;50.926;5.332;2024-03-07T15:26:24;12.50;81.40
25554;DHT22;13446;50.926;5.332;2024-03-07T15:28:53;12.30;82.80
25554;DHT22;13446;50.926;5.332;2024-03-07T15:31:20;12.20;84.30
25554;DHT22;13446;50.926;5.332;2024-03-07T15:33:47;12.20;84.60
25554;DHT22;13446;50.926;5.332;2024-03-07T15:36:16;12.20;84.00
25554;DHT22;13446;50.926;5.332;2024-03-07T15:38:43;12.10;84.20
25554;DHT22;13446;50.926;5.332;2024-03-07T15:41:09;12.10;85.70
25554;DHT22;13446;50.926;5.332;2024-03-07T15:43:37;12.20;86.60
25554;DHT22;13446;50.926;5.332;2024-03-07T15:46:04;12.20;87.50
25554;DHT22;13446;50.926;5.332;2024-03-07T15:48:31;12.20;86.60
25554;DHT22;13446;50.926;5.332;2024-03-07T15:50:58;12.10;88.00
25554;DHT22;13446;50.926;5.332;2024-03-07T15:53:24;12.10;90.00
25554;DHT22;13446;50.926;5.332;2024-03-07T15:55:50;12.30;90.20
25554;DHT22;13446;50.926;5.332;2024-03-07T15:58:16;12.40;88.80
25554;DHT22;13446;50.926;5.332;2024-03-07T16:00:45;12.30;90.30
25554;DHT22;13446;50.926;5.332;2024-03-07T16:03:15;12.20;90.90
25554;DHT22;13446;50.926;5.332;2024-03-07T16:05:42;12.30;91.60
25554;DHT22;13446;50.926;5.332;2024-03-07T16:08:10;12.30;91.90
25554;DHT22;13446;50.926;5.332;2024-03-07T16:10:37;12.30;92.20
25554;DHT22;13446;50.926;5.332;2024-03-07T16:13:05;12.30;92.20
25554;DHT22;13446;50.926;5.332;2024-03-07T16:15:36;12.20;92.30
25554;DHT22;13446;50.926;5.332;2024-03-07T16:18:02;12.10;92.40